Brownsville, Illinois
Current Conditions -  °F | °C
As of 8:35 AM on Monday 22 Dec 2014 (Local Time) from KCUL Reporting Station
Overcast Overcast  
Wind Chill: 39°   Ceiling: 1400
Heat Index: 44°   Visibility: 7mi
Dew Point: 41°   Wind: 8mph
Humidity: 89%   Direction: 120°ESE
Pressure: 29.87"   Gusts: NA
Location:  38.0491°N, 88.1124°W
Report Text: KCUL 221435Z AUTO 12007KT 7SM BKN014 OVC018 07/05 A2987 RMK AO2 T00660049
Loading
Personal Weather Stations






























Interactive Weather Map New forecast layout! Learn more

10-Day Weather Forecast

Advertisements
Track Severe Weather on mobile